createdAt,value
2022-09-10T00:01:06.304Z,2.20
2022-09-10T00:03:54.883Z,2.08
2022-09-10T00:06:44.904Z,2.28
2022-09-10T00:09:32.637Z,2.20
2022-09-10T00:12:20.655Z,2.63
2022-09-10T00:15:10.281Z,2.17
2022-09-10T00:17:57.984Z,2.17
2022-09-10T00:20:47.982Z,2.58
2022-09-10T00:23:36.986Z,2.30
2022-09-10T00:26:27.007Z,2.35
2022-09-10T00:29:18.568Z,2.30
2022-09-10T00:32:06.904Z,1.77
2022-09-10T00:34:56.262Z,2.00
2022-09-10T00:37:44.935Z,1.95
2022-09-10T00:40:35.581Z,1.88
2022-09-10T00:43:24.176Z,2.15
2022-09-10T00:46:11.943Z,1.80
2022-09-10T00:49:03.161Z,1.67
2022-09-10T00:51:53.806Z,1.55
2022-09-10T00:54:42.449Z,1.73
2022-09-10T00:57:31.964Z,1.58
2022-09-10T01:00:20.220Z,1.27
2022-09-10T01:03:12.232Z,1.65
2022-09-10T01:06:01.032Z,1.50
2022-09-10T01:08:49.309Z,1.83
2022-09-10T01:11:50.026Z,2.03
2022-09-10T01:14:56.635Z,2.03
2022-09-10T01:17:59.838Z,2.00
2022-09-10T01:21:06.363Z,1.90
2022-09-10T01:24:42.151Z,2.38
2022-09-10T01:27:42.844Z,1.73
2022-09-10T01:30:37.312Z,1.70
2022-09-10T01:33:34.316Z,1.50
2022-09-10T01:36:29.416Z,1.60
2022-09-10T01:39:19.931Z,1.30
2022-09-10T01:42:09.042Z,1.42
2022-09-10T01:44:59.198Z,1.60
2022-09-10T01:48:29.171Z,1.60
2022-09-10T01:51:28.919Z,1.25
2022-09-10T01:54:26.410Z,1.48
2022-09-10T01:57:27.960Z,1.30
2022-09-10T02:00:22.309Z,1.48
2022-09-10T02:03:16.276Z,1.85
2022-09-10T02:06:10.492Z,1.10
2022-09-10T02:09:01.207Z,1.50
2022-09-10T02:11:52.867Z,1.83
2022-09-10T02:15:09.264Z,1.88
2022-09-10T02:18:10.817Z,1.77
2022-09-10T02:21:05.517Z,1.90
2022-09-10T02:23:58.166Z,2.40
2022-09-10T02:26:46.646Z,2.08
2022-09-10T02:29:34.352Z,2.33
2022-09-10T02:32:21.852Z,3.35
2022-09-10T02:35:11.672Z,2.72
2022-09-10T02:38:00.120Z,2.80
2022-09-10T02:40:49.735Z,2.60
2022-09-10T02:43:38.501Z,2.28
2022-09-10T02:46:26.639Z,2.40
2022-09-10T02:49:15.285Z,2.42
2022-09-10T02:52:06.643Z,2.28
2022-09-10T02:54:56.164Z,2.90
2022-09-10T02:57:43.944Z,2.05
2022-09-10T03:00:32.409Z,3.00
2022-09-10T03:03:21.148Z,2.40
2022-09-10T03:06:09.745Z,2.60
2022-09-10T03:08:59.192Z,2.55
2022-09-10T03:11:48.267Z,2.28
2022-09-10T03:14:36.151Z,2.00
2022-09-10T03:17:24.011Z,2.42
2022-09-10T03:20:12.142Z,2.50
2022-09-10T03:22:59.935Z,2.20
2022-09-10T03:25:49.951Z,1.90
2022-09-10T03:28:43.649Z,1.98
2022-09-10T03:31:33.434Z,1.83
2022-09-10T03:34:21.175Z,1.73
2022-09-10T03:37:08.833Z,1.63
2022-09-10T03:39:58.109Z,1.90
2022-09-10T03:42:47.153Z,1.55
2022-09-10T03:45:35.218Z,1.42
2022-09-10T03:48:23.888Z,1.30
2022-09-10T03:51:12.731Z,1.50
2022-09-10T03:54:00.934Z,1.50
2022-09-10T03:56:51.084Z,1.65
2022-09-10T03:59:41.299Z,1.63
2022-09-10T04:02:31.509Z,1.48
2022-09-10T04:05:19.338Z,1.40
2022-09-10T04:08:07.604Z,1.48
2022-09-10T04:10:57.161Z,1.73
2022-09-10T04:13:46.705Z,1.80
2022-09-10T04:16:36.084Z,1.15
2022-09-10T04:19:24.720Z,1.63
2022-09-10T04:22:12.273Z,1.80
2022-09-10T04:25:02.004Z,1.67
2022-09-10T04:27:50.330Z,1.92
2022-09-10T04:30:40.306Z,2.20
2022-09-10T04:33:29.717Z,2.33
2022-09-10T04:36:17.420Z,2.50
2022-09-10T04:39:05.909Z,2.30
2022-09-10T04:41:53.612Z,1.98
2022-09-10T04:44:41.489Z,2.40
2022-09-10T04:47:29.495Z,2.00
2022-09-10T04:50:18.917Z,2.60
2022-09-10T04:53:27.860Z,2.03
2022-09-10T04:56:18.296Z,1.70
2022-09-10T04:59:06.460Z,1.85
2022-09-10T05:01:57.868Z,1.90
2022-09-10T05:04:45.811Z,2.00
2022-09-10T05:07:34.948Z,1.67
2022-09-10T05:10:23.764Z,1.77
2022-09-10T05:13:11.868Z,1.70
2022-09-10T05:15:59.948Z,1.90
2022-09-10T05:18:48.534Z,2.00
2022-09-10T05:21:37.115Z,1.92
2022-09-10T05:24:27.481Z,1.90
2022-09-10T05:27:16.212Z,1.70
2022-09-10T05:30:06.422Z,2.00
2022-09-10T05:32:56.328Z,1.70
2022-09-10T05:35:44.099Z,1.70
2022-09-10T05:38:31.925Z,1.80
2022-09-10T05:41:21.123Z,1.80
2022-09-10T05:44:10.319Z,1.80
2022-09-10T05:46:58.328Z,1.83
2022-09-10T05:49:47.090Z,1.90
2022-09-10T05:52:35.422Z,1.60
2022-09-10T05:55:26.512Z,2.08
2022-09-10T05:58:16.268Z,2.00
2022-09-10T06:01:03.948Z,2.40
2022-09-10T06:03:53.427Z,2.88
2022-09-10T06:06:41.109Z,2.63
2022-09-10T06:09:32.371Z,2.70
2022-09-10T06:12:25.599Z,3.05
2022-09-10T06:15:15.000Z,2.90
2022-09-10T06:18:02.825Z,3.17
2022-09-10T06:20:51.249Z,3.00
2022-09-10T06:23:39.253Z,2.40
2022-09-10T06:26:27.622Z,2.97
2022-09-10T06:29:19.908Z,3.40
2022-09-10T06:32:09.984Z,4.07
2022-09-10T06:34:58.272Z,5.00
2022-09-10T06:37:45.921Z,3.50
2022-09-10T06:40:35.217Z,3.05
2022-09-10T06:43:26.069Z,3.05
2022-09-10T06:49:45.800Z,2.80
2022-09-10T06:52:33.800Z,2.78
2022-09-10T06:55:25.378Z,1.92
2022-09-10T06:58:13.062Z,2.03
2022-09-10T07:01:13.886Z,2.50
2022-09-10T07:04:06.465Z,2.40
2022-09-10T07:06:58.989Z,1.90
2022-09-10T07:09:47.022Z,1.92
2022-09-10T07:12:37.396Z,1.80
2022-09-10T07:15:30.313Z,2.10
2022-09-10T07:18:18.510Z,1.98
2022-09-10T07:21:10.834Z,1.80
2022-09-10T07:24:06.478Z,2.00
2022-09-10T07:26:57.958Z,1.83
2022-09-10T07:29:46.592Z,2.10
2022-09-10T07:32:37.499Z,1.88
2022-09-10T07:35:32.737Z,2.58
2022-09-10T07:38:20.875Z,1.88
2022-09-10T07:41:14.723Z,2.28
2022-09-10T07:44:03.779Z,1.90
2022-09-10T07:46:57.212Z,2.30
2022-09-10T07:49:46.133Z,1.50
2022-09-10T07:52:35.006Z,1.85
2022-09-10T07:55:23.388Z,1.70
2022-09-10T07:58:13.246Z,1.70
2022-09-10T08:01:09.251Z,1.40
2022-09-10T08:03:58.653Z,1.33
2022-09-10T08:06:48.629Z,1.52
2022-09-10T08:09:37.517Z,1.60
2022-09-10T08:12:26.729Z,1.65
2022-09-10T08:15:18.186Z,1.75
2022-09-10T08:18:07.276Z,1.90
2022-09-10T08:20:56.166Z,1.50
2022-09-10T08:23:48.778Z,1.60
2022-09-10T08:26:37.066Z,1.80
2022-09-10T08:29:26.689Z,1.65
2022-09-10T08:32:15.854Z,1.90
2022-09-10T08:35:05.110Z,1.70
2022-09-10T08:37:53.666Z,1.42
2022-09-10T08:40:44.076Z,1.88
2022-09-10T08:43:38.833Z,1.60
2022-09-10T08:46:31.837Z,1.80
2022-09-10T08:49:30.797Z,1.30
2022-09-10T08:52:24.907Z,1.52
2022-09-10T08:55:24.583Z,1.38
2022-09-10T08:58:19.142Z,1.70
2022-09-10T09:01:13.502Z,1.50
2022-09-10T09:04:06.294Z,1.50
2022-09-10T09:07:03.309Z,1.45
2022-09-10T09:09:53.220Z,1.40
2022-09-10T09:12:55.800Z,1.58
2022-09-10T09:15:51.877Z,1.50
2022-09-10T09:19:00.415Z,1.17
2022-09-10T09:21:53.237Z,1.00
2022-09-10T09:24:55.450Z,1.50
2022-09-10T09:27:43.461Z,1.30
2022-09-10T09:30:37.233Z,1.25
2022-09-10T09:33:27.646Z,1.63
2022-09-10T09:36:19.499Z,1.50
2022-09-10T09:39:18.067Z,1.30
2022-09-10T09:42:14.458Z,1.30
2022-09-10T09:45:17.771Z,1.23
2022-09-10T09:48:07.569Z,1.50
2022-09-10T09:51:00.462Z,1.42
2022-09-10T09:53:56.899Z,1.50
2022-09-10T09:56:56.629Z,1.67
2022-09-10T09:59:46.107Z,1.42
2022-09-10T10:02:38.771Z,1.35
2022-09-10T10:05:27.640Z,1.58
2022-09-10T10:08:30.999Z,1.80
2022-09-10T10:11:21.723Z,1.48
2022-09-10T10:14:21.592Z,1.42
2022-09-10T10:17:33.545Z,1.50
2022-09-10T10:20:37.672Z,1.30
2022-09-10T10:23:31.315Z,1.40
2022-09-10T10:26:30.500Z,1.20
2022-09-10T10:29:20.575Z,0.93
2022-09-10T10:32:19.970Z,1.13
2022-09-10T10:35:32.838Z,1.30
2022-09-10T10:38:30.796Z,1.10
2022-09-10T10:41:42.827Z,1.40
2022-09-10T10:44:57.360Z,1.30
2022-09-10T10:47:50.038Z,1.10
2022-09-10T10:50:52.788Z,1.05
2022-09-10T10:53:57.509Z,1.05
2022-09-10T10:56:57.778Z,1.20
2022-09-10T10:59:56.044Z,0.80
2022-09-10T11:02:50.820Z,1.23
2022-09-10T11:05:43.804Z,0.90
2022-09-10T11:08:35.928Z,1.10
2022-09-10T11:11:31.340Z,1.25
2022-09-10T11:14:28.466Z,1.30
2022-09-10T11:17:21.142Z,1.20
2022-09-10T11:20:28.479Z,1.15
2022-09-10T11:23:28.004Z,1.15
2022-09-10T11:26:20.999Z,1.20
2022-09-10T11:29:32.064Z,0.95
2022-09-10T11:32:28.168Z,1.00
2022-09-10T11:35:22.837Z,1.05
2022-09-10T11:38:20.742Z,1.00
2022-09-10T11:41:17.885Z,1.00
2022-09-10T11:44:18.141Z,1.20
2022-09-10T11:47:14.503Z,1.10
2022-09-10T11:50:07.761Z,1.40
2022-09-10T11:52:56.632Z,1.40
2022-09-10T11:56:06.884Z,1.13
2022-09-10T11:59:08.709Z,1.20
2022-09-10T12:02:23.901Z,1.30
2022-09-10T12:05:20.611Z,1.20
2022-09-10T12:08:17.813Z,1.20
2022-09-10T12:11:15.705Z,1.20
2022-09-10T12:14:10.110Z,1.17
2022-09-10T12:17:01.075Z,1.30
2022-09-10T12:19:52.382Z,1.23
2022-09-10T12:22:42.268Z,1.00
2022-09-10T12:25:34.657Z,1.30
2022-09-10T12:28:55.546Z,1.20
2022-09-10T12:32:32.511Z,1.00
2022-09-10T12:35:49.488Z,1.10
2022-09-10T12:38:55.472Z,1.15
2022-09-10T12:42:01.598Z,1.23
2022-09-10T12:44:49.568Z,1.00
2022-09-10T12:47:52.577Z,0.77
2022-09-10T12:50:46.476Z,1.67
2022-09-10T12:54:03.156Z,1.33
2022-09-10T12:57:03.876Z,1.40
2022-09-10T13:00:13.503Z,1.50
2022-09-10T13:03:17.422Z,1.00
2022-09-10T13:06:07.191Z,0.98
2022-09-10T13:08:56.056Z,1.15
2022-09-10T13:11:47.802Z,1.80
2022-09-10T13:14:39.625Z,1.98
2022-09-10T13:17:41.468Z,1.45
2022-09-10T13:20:32.282Z,1.02
2022-09-10T13:23:47.678Z,1.20
2022-09-10T13:26:52.452Z,1.05
2022-09-10T13:29:42.583Z,1.30
2022-09-10T13:32:35.436Z,0.80
2022-09-10T13:35:55.965Z,0.90
2022-09-10T13:39:08.340Z,1.02
2022-09-10T13:42:35.671Z,0.98
2022-09-10T13:45:28.478Z,1.08
2022-09-10T13:48:20.498Z,0.90
2022-09-10T13:51:20.544Z,1.08
2022-09-10T13:54:15.199Z,0.95
2022-09-10T13:57:09.923Z,1.10
2022-09-10T14:00:06.812Z,1.15
2022-09-10T14:02:56.404Z,1.23
2022-09-10T14:05:48.325Z,1.25
2022-09-10T14:08:39.641Z,2.20
2022-09-10T14:11:29.518Z,1.90
2022-09-10T14:14:21.974Z,1.88
2022-09-10T14:17:15.528Z,1.27
2022-09-10T14:20:06.316Z,0.90
2022-09-10T14:23:00.019Z,0.90
2022-09-10T14:25:49.133Z,0.90
2022-09-10T14:28:36.972Z,1.00
2022-09-10T14:31:31.957Z,1.05
2022-09-10T14:34:33.688Z,1.20
2022-09-10T14:37:36.876Z,1.02
2022-09-10T14:40:25.142Z,1.00
2022-09-10T14:43:16.769Z,1.00
2022-09-10T14:46:07.988Z,1.20
2022-09-10T14:49:11.995Z,1.00
2022-09-10T14:52:02.731Z,1.02
2022-09-10T14:54:51.294Z,0.80
2022-09-10T14:57:39.191Z,1.30
2022-09-10T15:00:27.212Z,1.35
2022-09-10T15:03:17.181Z,1.02
2022-09-10T15:06:05.095Z,0.95
2022-09-10T15:08:56.328Z,1.15
2022-09-10T15:11:52.275Z,1.80
2022-09-10T15:14:40.282Z,1.80
2022-09-10T15:17:29.511Z,2.20
2022-09-10T15:20:18.173Z,2.50
2022-09-10T15:23:06.969Z,2.40
2022-09-10T15:25:58.602Z,2.10
2022-09-10T15:28:46.700Z,2.50
2022-09-10T15:31:36.018Z,1.70
2022-09-10T15:34:24.103Z,2.10
2022-09-10T15:37:14.292Z,2.28
2022-09-10T15:40:02.297Z,2.20
2022-09-10T15:42:52.395Z,2.58
2022-09-10T15:45:40.172Z,2.50
2022-09-10T15:48:28.628Z,2.67
2022-09-10T15:51:21.446Z,2.40
2022-09-10T15:54:11.358Z,2.58
2022-09-10T15:56:59.343Z,2.47
2022-09-10T15:59:49.005Z,3.20
2022-09-10T16:02:37.049Z,3.08
2022-09-10T16:05:25.061Z,2.92
2022-09-10T16:08:12.643Z,2.78
2022-09-10T16:11:01.220Z,3.40
2022-09-10T16:13:48.849Z,3.15
2022-09-10T16:16:38.311Z,3.50
2022-09-10T16:19:26.107Z,3.42
2022-09-10T16:22:16.475Z,3.83
2022-09-10T16:25:08.879Z,3.53
2022-09-10T16:27:56.805Z,3.30
2022-09-10T16:30:44.787Z,3.45
2022-09-10T16:33:34.540Z,3.08
2022-09-10T16:36:23.677Z,3.35
2022-09-10T16:39:15.587Z,2.53
2022-09-10T16:42:03.125Z,3.10
2022-09-10T16:44:50.639Z,2.83
2022-09-10T16:47:38.278Z,3.42
2022-09-10T16:50:27.961Z,3.58
2022-09-10T16:53:15.592Z,2.95
2022-09-10T16:56:05.555Z,3.10
2022-09-10T16:58:53.350Z,2.90
2022-09-10T17:01:41.369Z,3.30
2022-09-10T17:04:29.483Z,3.47
2022-09-10T17:07:18.409Z,3.67
2022-09-10T17:10:06.988Z,2.97
2022-09-10T17:12:54.608Z,2.28
2022-09-10T17:15:43.223Z,2.70
2022-09-10T17:18:31.146Z,2.58
2022-09-10T17:21:18.637Z,2.53
2022-09-10T17:24:10.345Z,2.35
2022-09-10T17:26:58.201Z,2.33
2022-09-10T17:29:45.818Z,2.35
2022-09-10T17:32:34.509Z,2.30
2022-09-10T17:35:22.329Z,2.10
2022-09-10T17:38:11.235Z,3.10
2022-09-10T17:41:03.205Z,3.10
2022-09-10T17:43:51.292Z,2.47
2022-09-10T17:46:39.583Z,2.80
2022-09-10T17:49:30.545Z,3.22
2022-09-10T17:52:18.356Z,3.72
2022-09-10T17:55:06.383Z,4.10
2022-09-10T17:57:56.323Z,3.90
2022-09-10T18:00:47.575Z,3.45
2022-09-10T18:03:36.240Z,4.55
2022-09-10T18:06:24.768Z,4.35
2022-09-10T18:09:12.437Z,5.40
2022-09-10T18:12:01.454Z,4.22
2022-09-10T18:14:50.532Z,3.88
2022-09-10T18:17:38.722Z,3.88
2022-09-10T18:20:29.406Z,4.15
2022-09-10T18:23:17.012Z,3.85
2022-09-10T18:26:14.838Z,5.10
2022-09-10T18:29:05.589Z,6.72
2022-09-10T18:32:00.749Z,6.18
2022-09-10T18:34:48.279Z,5.55
2022-09-10T18:37:36.198Z,4.82
2022-09-10T18:40:23.604Z,4.57
2022-09-10T18:43:12.920Z,4.50
2022-09-10T18:46:04.360Z,4.93
2022-09-10T18:48:54.371Z,4.93
2022-09-10T18:51:43.160Z,5.35
2022-09-10T18:54:30.956Z,5.70
2022-09-10T18:57:18.792Z,3.53
2022-09-10T19:00:07.889Z,3.67
2022-09-10T19:02:55.602Z,3.33
2022-09-10T19:05:44.974Z,3.40
2022-09-10T19:08:33.246Z,3.50
2022-09-10T19:11:22.516Z,3.40
2022-09-10T19:14:16.172Z,6.38
2022-09-10T19:17:04.751Z,7.35
2022-09-10T19:19:52.384Z,7.05
2022-09-10T19:22:42.910Z,8.70
2022-09-10T19:25:31.039Z,8.85
2022-09-10T19:28:19.263Z,10.50
2022-09-10T19:31:08.830Z,8.55
2022-09-10T19:33:57.645Z,7.30
2022-09-10T19:36:46.647Z,6.95
2022-09-10T19:39:35.746Z,5.70
2022-09-10T19:42:24.404Z,4.72
2022-09-10T19:45:12.744Z,4.47
2022-09-10T19:48:00.477Z,4.13
2022-09-10T19:50:48.052Z,4.25
2022-09-10T19:53:36.089Z,4.47
2022-09-10T19:56:27.076Z,4.15
2022-09-10T19:59:16.275Z,3.40
2022-09-10T20:02:04.387Z,3.17
2022-09-10T20:04:52.189Z,3.20
2022-09-10T20:07:40.211Z,3.70
2022-09-10T20:10:28.163Z,3.28
2022-09-10T20:13:17.884Z,3.40
2022-09-10T20:16:07.878Z,3.72
2022-09-10T20:18:56.462Z,3.10
2022-09-10T20:21:44.090Z,3.50
2022-09-10T20:24:32.071Z,3.38
2022-09-10T20:27:20.408Z,3.25
2022-09-10T20:30:10.951Z,2.92
2022-09-10T20:32:58.467Z,3.08
2022-09-10T20:35:46.936Z,3.20
2022-09-10T20:38:34.782Z,3.15
2022-09-10T20:41:23.440Z,3.28
2022-09-10T20:44:14.000Z,3.35
2022-09-10T20:47:03.508Z,3.20
2022-09-10T20:49:51.243Z,2.92
2022-09-10T20:52:39.048Z,3.17
2022-09-10T20:55:26.777Z,3.25
2022-09-10T20:58:15.090Z,3.63
2022-09-10T21:01:10.913Z,3.97
2022-09-10T21:04:01.632Z,3.42
2022-09-10T21:06:49.308Z,3.63
2022-09-10T21:09:37.069Z,3.97
2022-09-10T21:12:24.681Z,4.85
2022-09-10T21:15:13.130Z,4.10
2022-09-10T21:18:00.895Z,5.07
2022-09-10T21:20:50.182Z,3.95
2022-09-10T21:23:44.237Z,4.50
2022-09-10T21:26:34.475Z,4.30
2022-09-10T21:29:25.691Z,4.18
2022-09-10T21:32:13.335Z,5.18
2022-09-10T21:35:00.999Z,5.07
2022-09-10T21:37:50.173Z,7.63
2022-09-10T21:40:38.394Z,10.13
2022-09-10T21:43:26.398Z,9.75
2022-09-10T21:46:15.756Z,8.57
2022-09-10T21:49:03.795Z,9.55
2022-09-10T21:51:52.387Z,9.60
2022-09-10T21:54:41.573Z,9.30
2022-09-10T21:57:29.304Z,8.48
2022-09-10T22:00:17.177Z,7.75
2022-09-10T22:03:05.401Z,6.38
2022-09-10T22:05:53.062Z,7.32
2022-09-10T22:08:42.787Z,6.32
2022-09-10T22:11:34.323Z,6.03
2022-09-10T22:14:23.972Z,6.95
2022-09-10T22:17:11.592Z,6.70
2022-09-10T22:19:59.275Z,5.47
2022-09-10T22:22:47.145Z,5.32
2022-09-10T22:25:35.452Z,4.72
2022-09-10T22:28:24.547Z,6.60
2022-09-10T22:31:14.011Z,5.55
2022-09-10T22:34:03.573Z,5.43
2022-09-10T22:36:51.233Z,5.25
2022-09-10T22:39:39.109Z,5.28
2022-09-10T22:42:26.846Z,5.22
2022-09-10T22:45:16.407Z,4.97
2022-09-10T22:48:04.439Z,4.47
2022-09-10T22:50:52.516Z,5.93
2022-09-10T22:53:41.386Z,4.68
2022-09-10T22:56:29.683Z,4.85
2022-09-10T22:59:17.578Z,5.55
2022-09-10T23:02:06.856Z,4.78
2022-09-10T23:04:54.540Z,4.43
2022-09-10T23:07:42.731Z,5.50
2022-09-10T23:10:30.249Z,4.97
2022-09-10T23:13:18.020Z,5.50
2022-09-10T23:16:13.214Z,4.80
2022-09-10T23:19:04.743Z,4.10
2022-09-10T23:21:54.336Z,5.53
2022-09-10T23:24:42.132Z,4.50
2022-09-10T23:27:30.098Z,4.35
2022-09-10T23:30:18.021Z,4.50
2022-09-10T23:33:05.631Z,5.25
2022-09-10T23:35:55.373Z,4.20
2022-09-10T23:38:44.038Z,4.25
2022-09-10T23:41:31.833Z,4.32
2022-09-10T23:44:20.393Z,4.45
2022-09-10T23:47:08.002Z,4.32
2022-09-10T23:49:56.171Z,3.80
2022-09-10T23:52:45.311Z,4.60
2022-09-10T23:55:37.019Z,4.50
2022-09-10T23:58:25.280Z,5.05
